createdAt,value
2017-03-24T00:00:10.759Z,40.12
2017-03-24T00:00:51.411Z,40.79
2017-03-24T00:01:32.047Z,40.43
2017-03-24T00:02:12.672Z,40.41
2017-03-24T00:02:53.311Z,40.31
2017-03-24T00:03:33.959Z,40.31
2017-03-24T00:04:14.596Z,40.41
2017-03-24T00:04:55.230Z,40.41
2017-03-24T00:05:35.882Z,40.89
2017-03-24T00:06:16.522Z,40.22
2017-03-24T00:06:57.160Z,40.5
2017-03-24T00:07:37.824Z,40.41
2017-03-24T00:08:18.464Z,40.31
2017-03-24T00:08:59.142Z,40.31
2017-03-24T00:09:39.741Z,40.31
2017-03-24T00:10:20.383Z,40.31
2017-03-24T00:11:01.066Z,40.31
2017-03-24T00:11:41.649Z,40.31
2017-03-24T00:12:22.281Z,40.5
2017-03-24T00:13:02.913Z,40.41
2017-03-24T00:13:43.581Z,40.7
2017-03-24T00:14:24.246Z,40.79
2017-03-24T00:15:04.969Z,40.79
2017-03-24T00:15:45.611Z,40.6
2017-03-24T00:16:26.271Z,40.79
2017-03-24T00:17:06.931Z,40.6
2017-03-24T00:17:47.576Z,40.41
2017-03-24T00:18:28.195Z,40.5
2017-03-24T00:19:08.818Z,40.12
2017-03-24T00:19:49.445Z,40.41
2017-03-24T00:20:30.121Z,40.12
2017-03-24T00:21:10.876Z,40.41
2017-03-24T00:21:51.504Z,40.79
2017-03-24T00:22:32.163Z,40.31
2017-03-24T00:23:12.797Z,40.41
2017-03-24T00:23:53.439Z,40.5
2017-03-24T00:24:34.087Z,40.41
2017-03-24T00:25:14.736Z,40.5
2017-03-24T00:25:55.369Z,40.41
2017-03-24T00:26:36.018Z,40.41
2017-03-24T00:27:16.642Z,40.41
2017-03-24T00:27:57.268Z,40.7
2017-03-24T00:28:37.934Z,40.41
2017-03-24T00:29:18.575Z,40.41
2017-03-24T00:29:59.210Z,40.31
2017-03-24T00:30:39.839Z,40.5
2017-03-24T00:31:20.471Z,40.31
2017-03-24T00:32:01.101Z,40.31
2017-03-24T00:32:41.800Z,40.22
2017-03-24T00:33:22.508Z,40.5
2017-03-24T00:34:03.164Z,40.22
2017-03-24T00:34:43.810Z,40.41
2017-03-24T00:35:24.516Z,40.31
2017-03-24T00:36:05.143Z,40.5
2017-03-24T00:36:45.772Z,40.5
2017-03-24T00:37:26.468Z,40.6
2017-03-24T00:38:07.104Z,40.31
2017-03-24T00:38:47.735Z,40.31
2017-03-24T00:39:28.432Z,40.22
2017-03-24T00:40:09.109Z,40.41
2017-03-24T00:40:49.746Z,40.41
2017-03-24T00:41:30.441Z,40.41
2017-03-24T00:42:11.140Z,40.31
2017-03-24T00:42:51.827Z,40.41
2017-03-24T00:43:32.467Z,40.31
2017-03-24T00:44:13.114Z,40.5
2017-03-24T00:44:53.750Z,40.41
2017-03-24T00:45:34.384Z,40.7
2017-03-24T00:46:15.102Z,40.41
2017-03-24T00:46:55.741Z,40.31
2017-03-24T00:47:36.380Z,40.41
2017-03-24T00:48:17.063Z,40.22
2017-03-24T00:48:57.751Z,40.12
2017-03-24T00:49:38.388Z,40.12
2017-03-24T00:50:19.102Z,40.22
2017-03-24T00:50:59.814Z,40.12
2017-03-24T00:51:40.518Z,39.93
2017-03-24T00:52:21.172Z,39.83
2017-03-24T00:53:01.890Z,39.93
2017-03-24T00:53:42.522Z,40.22
2017-03-24T00:54:23.166Z,40.12
2017-03-24T00:55:03.802Z,40.02
2017-03-24T00:55:44.481Z,40.22
2017-03-24T00:56:25.109Z,40.02
2017-03-24T00:57:05.786Z,39.93
2017-03-24T00:57:46.413Z,40.12
2017-03-24T00:58:27.057Z,39.93
2017-03-24T00:59:07.786Z,39.93
2017-03-24T00:59:48.468Z,40.02
2017-03-24T01:00:29.124Z,40.02
2017-03-24T01:01:09.775Z,40.12
2017-03-24T01:01:50.504Z,40.02
2017-03-24T01:02:31.176Z,40.12
2017-03-24T01:03:11.810Z,40.12
2017-03-24T01:03:52.519Z,39.83
2017-03-24T01:04:33.151Z,39.93
2017-03-24T01:05:13.786Z,39.93
2017-03-24T01:05:54.477Z,40.02
2017-03-24T01:06:35.218Z,40.02
2017-03-24T01:07:15.871Z,39.93
2017-03-24T01:07:56.500Z,39.91
2017-03-24T01:08:37.237Z,39.83
2017-03-24T01:09:17.892Z,39.64
2017-03-24T01:09:58.529Z,39.73
2017-03-24T01:10:39.273Z,39.81
2017-03-24T01:11:19.997Z,39.93
2017-03-24T01:12:00.657Z,39.93
2017-03-24T01:12:41.305Z,39.91
2017-03-24T01:13:22.030Z,39.91
2017-03-24T01:14:02.793Z,40.31
2017-03-24T01:14:43.434Z,40.02
2017-03-24T01:15:24.081Z,39.93
2017-03-24T01:16:04.801Z,40.29
2017-03-24T01:16:45.452Z,39.91
2017-03-24T01:17:26.107Z,40.31
2017-03-24T01:18:06.848Z,40.12
2017-03-24T01:18:47.495Z,40.02
2017-03-24T01:19:28.126Z,39.93
2017-03-24T01:20:08.843Z,39.83
2017-03-24T01:20:49.477Z,40.12
2017-03-24T01:21:30.115Z,40.12
2017-03-24T01:22:10.869Z,40.22
2017-03-24T01:22:51.513Z,40.29
2017-03-24T01:23:32.145Z,39.93
2017-03-24T01:24:12.803Z,40.2
2017-03-24T01:24:53.490Z,40.31
2017-03-24T01:25:34.158Z,40.2
2017-03-24T01:26:14.787Z,40.1
2017-03-24T01:26:55.518Z,39.91
2017-03-24T01:27:36.165Z,39.91
2017-03-24T01:28:16.810Z,40
2017-03-24T01:28:57.451Z,40.22
2017-03-24T01:29:38.078Z,40.12
2017-03-24T01:30:18.709Z,39.91
2017-03-24T01:30:59.371Z,40
2017-03-24T01:31:40.056Z,40.12
2017-03-24T01:32:20.683Z,40.2
2017-03-24T01:33:01.330Z,40.29
2017-03-24T01:33:41.978Z,39.91
2017-03-24T01:34:22.611Z,39.62
2017-03-24T01:35:03.332Z,39.72
2017-03-24T01:35:44.083Z,40.1
2017-03-24T01:36:24.788Z,39.91
2017-03-24T01:37:05.420Z,39.91
2017-03-24T01:37:46.112Z,40
2017-03-24T01:38:26.745Z,39.72
2017-03-24T01:39:07.385Z,39.81
2017-03-24T01:39:48.014Z,40.12
2017-03-24T01:40:28.696Z,40.1
2017-03-24T01:41:09.325Z,40.1
2017-03-24T01:41:50.012Z,40.1
2017-03-24T01:42:30.635Z,39.91
2017-03-24T01:43:11.260Z,40.2
2017-03-24T01:43:51.887Z,40
2017-03-24T01:44:32.525Z,40
2017-03-24T01:45:13.159Z,40.1
2017-03-24T01:45:53.873Z,39.91
2017-03-24T01:46:34.614Z,40
2017-03-24T01:47:15.277Z,40.1
2017-03-24T01:47:55.920Z,40.2
2017-03-24T01:48:36.648Z,40.1
2017-03-24T01:49:17.305Z,40.2
2017-03-24T01:49:57.931Z,40
2017-03-24T01:50:38.589Z,40.2
2017-03-24T01:51:19.253Z,40.2
2017-03-24T01:51:59.878Z,40.1
2017-03-24T01:52:40.501Z,40.39
2017-03-24T01:53:21.129Z,40.39
2017-03-24T01:54:01.762Z,40.1
2017-03-24T01:54:42.391Z,40.2
2017-03-24T01:55:23.131Z,40.29
2017-03-24T01:56:03.752Z,40.39
2017-03-24T01:56:44.478Z,40.39
2017-03-24T01:57:25.101Z,40.39
2017-03-24T01:58:05.735Z,40.48
2017-03-24T01:58:46.372Z,40.39
2017-03-24T01:59:27.092Z,40.67
2017-03-24T02:00:07.784Z,40.2
2017-03-24T02:00:48.433Z,40.39
2017-03-24T02:01:29.063Z,40.39
2017-03-24T02:02:09.734Z,40.39
2017-03-24T02:02:50.362Z,40.39
2017-03-24T02:03:31.025Z,40.48
2017-03-24T02:04:11.761Z,40.39
2017-03-24T02:04:52.390Z,40.39
2017-03-24T02:05:33.040Z,40.29
2017-03-24T02:06:13.719Z,40.39
2017-03-24T02:06:54.364Z,40.29
2017-03-24T02:07:35.003Z,40.2
2017-03-24T02:08:15.682Z,40.39
2017-03-24T02:08:56.320Z,40.39
2017-03-24T02:09:36.951Z,40.29
2017-03-24T02:10:17.604Z,40.2
2017-03-24T02:10:58.240Z,40.48
2017-03-24T02:11:38.853Z,40.39
2017-03-24T02:12:19.572Z,40.29
2017-03-24T02:13:00.197Z,40.39
2017-03-24T02:13:40.819Z,40.29
2017-03-24T02:14:21.466Z,40.2
2017-03-24T02:15:02.097Z,40.2
2017-03-24T02:15:42.730Z,40.29
2017-03-24T02:16:23.396Z,40.39
2017-03-24T02:17:04.017Z,40.48
2017-03-24T02:17:44.668Z,40.2
2017-03-24T02:18:25.349Z,40.2
2017-03-24T02:19:05.981Z,40.58
2017-03-24T02:19:46.607Z,40.2
2017-03-24T02:20:27.254Z,40.48
2017-03-24T02:21:07.993Z,40.39
2017-03-24T02:21:48.630Z,40.39
2017-03-24T02:22:29.257Z,40.48
2017-03-24T02:23:09.892Z,40.67
2017-03-24T02:23:50.514Z,40.29
2017-03-24T02:24:31.209Z,40.39
2017-03-24T02:25:11.877Z,40.29
2017-03-24T02:25:52.506Z,40.39
2017-03-24T02:26:33.253Z,40.39
2017-03-24T02:27:13.978Z,40.2
2017-03-24T02:27:54.635Z,40.58
2017-03-24T02:28:35.290Z,40.48
2017-03-24T02:29:15.934Z,40.29
2017-03-24T02:29:56.614Z,40.39
2017-03-24T02:30:37.241Z,40.39
2017-03-24T02:31:17.862Z,40.48
2017-03-24T02:31:58.498Z,40.39
2017-03-24T02:32:39.123Z,40.39
2017-03-24T02:33:19.835Z,40.39
2017-03-24T02:34:00.467Z,40.29
2017-03-24T02:34:41.089Z,40.39
2017-03-24T02:35:21.783Z,40.48
2017-03-24T02:36:02.468Z,40.39
2017-03-24T02:36:43.093Z,40.39
2017-03-24T02:37:23.816Z,40.39
2017-03-24T02:38:04.572Z,40.29
2017-03-24T02:38:45.291Z,40.48
2017-03-24T02:39:25.939Z,40.48
2017-03-24T02:40:06.620Z,40.29
2017-03-24T02:40:47.246Z,40.58
2017-03-24T02:41:27.874Z,40.48
2017-03-24T02:42:08.540Z,40.29
2017-03-24T02:42:49.196Z,40.39
2017-03-24T02:43:29.822Z,40.48
2017-03-24T02:44:10.543Z,40.39
2017-03-24T02:44:51.299Z,40.39
2017-03-24T02:45:31.958Z,40.39
2017-03-24T02:46:12.573Z,40.2
2017-03-24T02:46:53.231Z,40.39
2017-03-24T02:47:33.925Z,40.39
2017-03-24T02:48:14.548Z,40.48
2017-03-24T02:48:55.243Z,40.48
2017-03-24T02:49:35.925Z,40.2
2017-03-24T02:50:16.551Z,40.39
2017-03-24T02:50:57.279Z,40.48
2017-03-24T02:51:38.008Z,40.39
2017-03-24T02:52:18.682Z,40.2
2017-03-24T02:52:59.328Z,40.48
2017-03-24T02:53:39.984Z,40.48
2017-03-24T02:54:20.612Z,40.48
2017-03-24T02:55:01.236Z,40.39
2017-03-24T02:55:41.905Z,40.48
2017-03-24T02:56:22.501Z,40.29
2017-03-24T02:57:03.123Z,40.48
2017-03-24T02:57:43.745Z,40.29
2017-03-24T02:58:24.416Z,40.48
2017-03-24T02:59:05.063Z,40.48
2017-03-24T02:59:45.690Z,40.39
2017-03-24T03:00:26.324Z,40.67
2017-03-24T03:01:06.951Z,40.29
2017-03-24T03:01:47.671Z,40.48
2017-03-24T03:02:28.372Z,40.47
2017-03-24T03:03:08.998Z,40.2
2017-03-24T03:03:49.623Z,40.39
2017-03-24T03:04:30.270Z,40.39
2017-03-24T03:05:10.893Z,40.39
2017-03-24T03:05:51.531Z,40.39
2017-03-24T03:06:32.155Z,40.39
2017-03-24T03:07:12.791Z,40.2
2017-03-24T03:07:53.429Z,40.1
2017-03-24T03:08:34.065Z,40.39
2017-03-24T03:09:14.692Z,40.48
2017-03-24T03:09:55.378Z,40.17
2017-03-24T03:10:36.003Z,40.29
2017-03-24T03:11:16.634Z,40.39
2017-03-24T03:11:57.330Z,40.29
2017-03-24T03:12:37.968Z,40.39
2017-03-24T03:13:18.590Z,40.39
2017-03-24T03:13:59.214Z,40.39
2017-03-24T03:14:39.840Z,40.37
2017-03-24T03:15:20.474Z,40.27
2017-03-24T03:16:01.107Z,40.1
2017-03-24T03:16:41.749Z,40.29
2017-03-24T03:17:22.377Z,40.48
2017-03-24T03:18:03.077Z,40.48
2017-03-24T03:18:43.753Z,40.39
2017-03-24T03:19:24.378Z,40.39
2017-03-24T03:20:05.034Z,40.29
2017-03-24T03:20:45.711Z,40.29
2017-03-24T03:21:26.343Z,40.39
2017-03-24T03:22:07.029Z,40.29
2017-03-24T03:22:47.667Z,40.1
2017-03-24T03:23:28.300Z,40.1
2017-03-24T03:24:08.993Z,40.08
2017-03-24T03:24:49.704Z,40.2
2017-03-24T03:25:30.358Z,40.17
2017-03-24T03:26:11.001Z,40.2
2017-03-24T03:26:51.753Z,40.2
2017-03-24T03:27:32.401Z,40.2
2017-03-24T03:28:13.026Z,40.2
2017-03-24T03:28:53.678Z,40.1
2017-03-24T03:29:34.305Z,40.08
2017-03-24T03:30:14.933Z,40.17
2017-03-24T03:30:55.559Z,40.2
2017-03-24T03:31:36.325Z,40.37
2017-03-24T03:32:16.948Z,39.98
2017-03-24T03:32:57.617Z,40.17
2017-03-24T03:33:38.353Z,39.98
2017-03-24T03:34:19.019Z,40.1
2017-03-24T03:34:59.667Z,40.08
2017-03-24T03:35:40.303Z,40.1
2017-03-24T03:36:20.936Z,40.17
2017-03-24T03:37:01.566Z,39.98
2017-03-24T03:37:42.298Z,40.17
2017-03-24T03:38:22.998Z,40.17
2017-03-24T03:39:03.621Z,40.2
2017-03-24T03:39:44.371Z,40.2
2017-03-24T03:40:25.057Z,40.08
2017-03-24T03:41:05.735Z,39.89
2017-03-24T03:41:46.382Z,39.89
2017-03-24T03:42:27.052Z,39.98
2017-03-24T03:43:07.683Z,40.17
2017-03-24T03:43:48.333Z,40.27
2017-03-24T03:44:29.058Z,40.08
2017-03-24T03:45:09.698Z,40.17
2017-03-24T03:45:50.327Z,40.17
2017-03-24T03:46:31.051Z,40.27
2017-03-24T03:47:11.675Z,40.37
2017-03-24T03:47:52.313Z,40.08
2017-03-24T03:48:33.013Z,40.17
2017-03-24T03:49:13.745Z,40.39
2017-03-24T03:49:54.394Z,40.29
2017-03-24T03:50:35.033Z,40.17
2017-03-24T03:51:15.765Z,40.08
2017-03-24T03:51:56.448Z,40.08
2017-03-24T03:52:37.081Z,40.1
2017-03-24T03:53:17.800Z,40.08
2017-03-24T03:53:58.557Z,40.08
2017-03-24T03:54:39.260Z,40.37
2017-03-24T03:55:19.905Z,40.27
2017-03-24T03:56:00.620Z,40.27
2017-03-24T03:56:41.286Z,40.27
2017-03-24T03:57:21.912Z,40.17
2017-03-24T03:58:02.559Z,40.17
2017-03-24T03:58:43.220Z,40.08
2017-03-24T03:59:23.846Z,40.37
2017-03-24T04:00:04.563Z,40.1
2017-03-24T04:00:45.280Z,40.37
2017-03-24T04:01:25.932Z,40.27
2017-03-24T04:02:06.553Z,40.37
2017-03-24T04:02:47.207Z,40.29
2017-03-24T04:03:27.882Z,40.2
2017-03-24T04:04:08.500Z,40.17
2017-03-24T04:04:49.209Z,40.37
2017-03-24T04:05:29.986Z,40.37
2017-03-24T04:06:10.622Z,40.47
2017-03-24T04:06:51.269Z,40.27
2017-03-24T04:07:31.895Z,40.17
2017-03-24T04:08:12.526Z,40.37
2017-03-24T04:08:53.206Z,40.37
2017-03-24T04:09:33.963Z,40.17
2017-03-24T04:10:14.600Z,40.27
2017-03-24T04:10:55.221Z,40.37
2017-03-24T04:11:35.950Z,40.37
2017-03-24T04:12:16.626Z,40.47
2017-03-24T04:12:57.252Z,40.37
2017-03-24T04:13:37.966Z,40.37
2017-03-24T04:14:18.584Z,40.17
2017-03-24T04:14:59.219Z,40.37
2017-03-24T04:15:39.853Z,40.47
2017-03-24T04:16:20.490Z,40.27
2017-03-24T04:17:01.140Z,40.37
2017-03-24T04:17:41.762Z,40.27
2017-03-24T04:18:22.447Z,40.27
2017-03-24T04:19:03.075Z,40.37
2017-03-24T04:19:43.705Z,40.37
2017-03-24T04:20:24.340Z,40.37
2017-03-24T04:21:04.978Z,40.37
2017-03-24T04:21:45.599Z,40.47
2017-03-24T04:22:26.286Z,40.37
2017-03-24T04:23:06.912Z,40.47
2017-03-24T04:23:47.541Z,40.56
2017-03-24T04:24:28.185Z,40.47
2017-03-24T04:25:08.808Z,40.17
2017-03-24T04:25:49.429Z,40.17
2017-03-24T04:26:30.153Z,40.17
2017-03-24T04:27:10.783Z,40.56
2017-03-24T04:27:51.404Z,40.56
2017-03-24T04:28:32.039Z,40.27
2017-03-24T04:29:12.667Z,40.27
2017-03-24T04:29:53.299Z,40.37
2017-03-24T04:30:33.925Z,40.56
2017-03-24T04:31:14.574Z,40.37
2017-03-24T04:31:55.230Z,40.27
2017-03-24T04:32:35.856Z,40.37
2017-03-24T04:33:16.494Z,40.27
2017-03-24T04:33:57.883Z,40.47
2017-03-24T04:34:38.504Z,40.27
2017-03-24T04:35:19.144Z,40.37
2017-03-24T04:35:59.865Z,40.27
2017-03-24T04:36:40.502Z,40.56
2017-03-24T04:37:21.125Z,40.47
2017-03-24T04:38:01.752Z,40.47
2017-03-24T04:38:42.426Z,40.27
2017-03-24T04:39:23.002Z,40.17
2017-03-24T04:40:03.675Z,40.66
2017-03-24T04:40:44.301Z,40.37
2017-03-24T04:41:24.923Z,40.66
2017-03-24T04:42:05.553Z,40.66
2017-03-24T04:42:46.178Z,40.66
2017-03-24T04:43:26.807Z,40.84
2017-03-24T04:44:07.493Z,40.56
2017-03-24T04:44:48.131Z,40.84
2017-03-24T04:45:28.747Z,40.84
2017-03-24T04:46:09.402Z,40.66
2017-03-24T04:46:50.031Z,40.37
2017-03-24T04:47:30.663Z,40.66
2017-03-24T04:48:11.383Z,40.56
2017-03-24T04:48:52.021Z,40.84
2017-03-24T04:49:32.671Z,40.84
2017-03-24T04:50:13.378Z,40.66
2017-03-24T04:50:54.076Z,40.75
2017-03-24T04:51:34.707Z,40.56
2017-03-24T04:52:15.334Z,40.66
2017-03-24T04:52:55.973Z,40.66
2017-03-24T04:53:36.603Z,40.66
2017-03-24T04:54:17.231Z,40.47
2017-03-24T04:54:57.868Z,40.66
2017-03-24T04:55:38.509Z,40.56
2017-03-24T04:56:19.204Z,40.66
2017-03-24T04:56:59.831Z,40.08
2017-03-24T04:57:40.462Z,40.66
2017-03-24T04:58:21.137Z,40.66
2017-03-24T04:59:01.813Z,40.56
2017-03-24T04:59:42.447Z,40.56
2017-03-24T05:00:23.192Z,40.08
2017-03-24T05:01:03.883Z,40.27
2017-03-24T05:01:44.616Z,40.27
2017-03-24T05:02:25.260Z,40.47
2017-03-24T05:03:05.888Z,40.47
2017-03-24T05:03:46.512Z,40.27
2017-03-24T05:04:27.137Z,40.56
2017-03-24T05:05:07.824Z,40.27
2017-03-24T05:05:48.507Z,40.47
2017-03-24T05:06:29.143Z,40.37
2017-03-24T05:07:09.768Z,40.47
2017-03-24T05:07:50.459Z,40.17
2017-03-24T05:08:31.080Z,40.17
2017-03-24T05:09:11.765Z,40.17
2017-03-24T05:09:52.399Z,40.37
2017-03-24T05:10:33.021Z,40.27
2017-03-24T05:11:13.640Z,40.47
2017-03-24T05:11:54.315Z,40.37
2017-03-24T05:12:34.954Z,40.56
2017-03-24T05:13:15.657Z,40.27
2017-03-24T05:13:56.294Z,40.37
2017-03-24T05:14:36.929Z,40.27
2017-03-24T05:15:17.549Z,40.17
2017-03-24T05:15:58.292Z,40.47
2017-03-24T05:16:38.920Z,40.47
2017-03-24T05:17:19.558Z,40.27
2017-03-24T05:18:00.182Z,40.17
2017-03-24T05:18:40.884Z,40.37
2017-03-24T05:19:21.531Z,40.47
2017-03-24T05:20:02.224Z,40.37
2017-03-24T05:20:42.880Z,40.56
2017-03-24T05:21:23.503Z,40.47
2017-03-24T05:22:04.128Z,40.37
2017-03-24T05:22:44.782Z,40.37
2017-03-24T05:23:25.412Z,40.47
2017-03-24T05:24:06.046Z,40.37
2017-03-24T05:24:46.794Z,40.37
2017-03-24T05:25:27.431Z,40.47
2017-03-24T05:26:08.147Z,40.37
2017-03-24T05:26:48.779Z,40.27
2017-03-24T05:27:29.441Z,40.17
2017-03-24T05:28:10.048Z,40.37
2017-03-24T05:28:50.707Z,40.47
2017-03-24T05:29:31.404Z,40.66
2017-03-24T05:30:11.975Z,40.47
2017-03-24T05:30:52.720Z,40.27
2017-03-24T05:31:33.935Z,40.66
2017-03-24T05:32:14.629Z,40.47
2017-03-24T05:32:55.307Z,40.17
2017-03-24T05:33:35.934Z,40.47
2017-03-24T05:34:16.660Z,40.47
2017-03-24T05:34:57.344Z,40.17
2017-03-24T05:35:37.966Z,40.27
2017-03-24T05:36:18.677Z,40.37
2017-03-24T05:36:59.307Z,40.47
2017-03-24T05:37:39.933Z,40.17
2017-03-24T05:38:20.576Z,40.27
2017-03-24T05:39:01.231Z,40.17
2017-03-24T05:39:41.861Z,40.08
2017-03-24T05:40:22.484Z,40.27
2017-03-24T05:41:03.120Z,40.37
2017-03-24T05:41:43.750Z,40.37
2017-03-24T05:42:24.464Z,40.37
2017-03-24T05:43:05.095Z,40.37
2017-03-24T05:43:45.726Z,40.37
2017-03-24T05:44:26.389Z,40.37
2017-03-24T05:45:07.018Z,40.37
2017-03-24T05:45:47.636Z,40.37
2017-03-24T05:46:28.341Z,40.37
2017-03-24T05:47:08.964Z,40.47
2017-03-24T05:47:49.591Z,40.27
2017-03-24T05:48:30.211Z,40.08
2017-03-24T05:49:10.900Z,40.08
2017-03-24T05:49:51.545Z,40.37
2017-03-24T05:50:32.177Z,40.37
2017-03-24T05:51:12.818Z,40.37
2017-03-24T05:51:53.442Z,40.37
2017-03-24T05:52:34.076Z,40.37
2017-03-24T05:53:14.741Z,40.17
2017-03-24T05:53:55.459Z,40.37
2017-03-24T05:54:36.003Z,40.37
2017-03-24T05:55:16.657Z,40.47
2017-03-24T05:55:57.286Z,40.37
2017-03-24T05:56:37.909Z,40.37
2017-03-24T05:57:18.641Z,40.27
2017-03-24T05:57:59.267Z,40.56
2017-03-24T05:58:39.889Z,40.27
2017-03-24T05:59:20.558Z,40.56
2017-03-24T06:00:01.191Z,40.66
2017-03-24T06:00:41.817Z,40.37
2017-03-24T06:01:22.502Z,40.47
2017-03-24T06:02:03.172Z,40.37
2017-03-24T06:02:43.810Z,40.37
2017-03-24T06:03:24.530Z,40.56
2017-03-24T06:04:05.242Z,40.27
2017-03-24T06:04:45.887Z,40.17
2017-03-24T06:05:26.588Z,40.47
2017-03-24T06:06:07.279Z,40.17
2017-03-24T06:06:47.922Z,40.08
2017-03-24T06:07:28.549Z,40.37
2017-03-24T06:08:09.206Z,40.08
2017-03-24T06:08:49.841Z,40.37
2017-03-24T06:09:30.477Z,40.27
2017-03-24T06:10:11.135Z,40.37
2017-03-24T06:10:51.867Z,40.66
2017-03-24T06:11:32.507Z,40.66
2017-03-24T06:12:13.181Z,40.47
2017-03-24T06:12:53.924Z,40.66
2017-03-24T06:13:34.549Z,40.75
2017-03-24T06:14:15.194Z,40.47
2017-03-24T06:14:55.915Z,40.56
2017-03-24T06:15:36.572Z,40.66
2017-03-24T06:16:17.219Z,40.47
2017-03-24T06:16:57.881Z,40.56
2017-03-24T06:17:38.568Z,40.66
2017-03-24T06:18:19.183Z,40.56
2017-03-24T06:18:59.812Z,40.66
2017-03-24T06:19:40.487Z,40.37
2017-03-24T06:20:21.105Z,40.56
2017-03-24T06:21:01.829Z,40.56
2017-03-24T06:21:42.471Z,40.47
2017-03-24T06:22:23.089Z,40.56
2017-03-24T06:23:03.776Z,40.47
2017-03-24T06:23:44.407Z,40.66
2017-03-24T06:24:25.030Z,40.66
2017-03-24T06:25:05.757Z,40.37
2017-03-24T06:25:46.380Z,40.56
2017-03-24T06:26:27.004Z,40.75
2017-03-24T06:27:08.425Z,40.75
2017-03-24T06:27:49.143Z,40.56
2017-03-24T06:28:29.791Z,40.75
2017-03-24T06:29:10.413Z,40.84
2017-03-24T06:29:51.126Z,40.84
2017-03-24T06:30:31.754Z,40.84
2017-03-24T06:31:12.382Z,40.56
2017-03-24T06:31:53.023Z,40.47
2017-03-24T06:32:33.655Z,40.56
2017-03-24T06:33:14.298Z,40.75
2017-03-24T06:33:54.977Z,40.66
2017-03-24T06:34:35.604Z,40.66
2017-03-24T06:35:16.238Z,40.66
2017-03-24T06:35:56.953Z,40.75
2017-03-24T06:36:37.578Z,40.47
2017-03-24T06:37:18.223Z,40.56
2017-03-24T06:37:58.916Z,40.75
2017-03-24T06:38:39.548Z,40.66
2017-03-24T06:39:20.243Z,40.66
2017-03-24T06:40:00.930Z,40.75
2017-03-24T06:40:41.561Z,40.37
2017-03-24T06:41:22.190Z,40.66
2017-03-24T06:42:02.867Z,40.37
2017-03-24T06:42:43.493Z,40.56
2017-03-24T06:43:24.123Z,40.17
2017-03-24T06:44:04.791Z,40.17
2017-03-24T06:44:45.494Z,40.27
2017-03-24T06:45:26.134Z,40.17
2017-03-24T06:46:06.819Z,40.08
2017-03-24T06:46:47.458Z,40.37
2017-03-24T06:47:28.089Z,40.37
2017-03-24T06:48:08.777Z,40.47
2017-03-24T06:48:49.418Z,40.37
2017-03-24T06:49:30.040Z,40.47
2017-03-24T06:50:10.739Z,40.47
2017-03-24T06:50:51.369Z,40.47
2017-03-24T06:51:32.001Z,40.37
2017-03-24T06:52:12.701Z,40.37
2017-03-24T06:52:53.405Z,40.75
2017-03-24T06:53:34.030Z,40.08
2017-03-24T06:54:14.706Z,40.35
2017-03-24T06:54:55.375Z,40.56
2017-03-24T06:55:36.045Z,40.47
2017-03-24T06:56:16.670Z,40.47
2017-03-24T06:56:57.357Z,40.47
2017-03-24T06:57:37.981Z,40.27
2017-03-24T06:58:18.609Z,40.47
2017-03-24T06:58:59.296Z,40.17
2017-03-24T06:59:39.964Z,40.27
2017-03-24T07:00:20.592Z,40.56
2017-03-24T07:01:01.246Z,40.47
2017-03-24T07:01:41.939Z,40.37
2017-03-24T07:02:22.574Z,40.27
2017-03-24T07:03:03.207Z,40.56
2017-03-24T07:03:43.835Z,40.37
2017-03-24T07:04:24.475Z,40.66
2017-03-24T07:05:05.150Z,40.66
2017-03-24T07:05:45.784Z,40.27
2017-03-24T07:06:26.411Z,40.17
2017-03-24T07:07:07.096Z,40.37
2017-03-24T07:07:47.742Z,40.27
2017-03-24T07:08:28.374Z,40.27
2017-03-24T07:09:09.036Z,40.56
2017-03-24T07:09:49.672Z,40.56
2017-03-24T07:10:30.296Z,40.27
2017-03-24T07:11:10.919Z,40.27
2017-03-24T07:11:51.574Z,40.37
2017-03-24T07:12:32.202Z,40.17
2017-03-24T07:13:12.830Z,40.27
2017-03-24T07:13:53.483Z,40.27
2017-03-24T07:14:34.115Z,40.47
2017-03-24T07:15:14.742Z,40.37
2017-03-24T07:15:55.447Z,40.37
2017-03-24T07:16:36.075Z,40.27
2017-03-24T07:17:16.760Z,40.84
2017-03-24T07:17:57.461Z,40.56
2017-03-24T07:18:38.116Z,40.56
2017-03-24T07:19:18.762Z,40.84
2017-03-24T07:19:59.399Z,40.56
2017-03-24T07:20:40.038Z,40.66
2017-03-24T07:21:20.673Z,40.75
2017-03-24T07:22:01.343Z,40.56
2017-03-24T07:22:41.967Z,40.75
2017-03-24T07:23:22.597Z,40.75
2017-03-24T07:24:03.234Z,40.47
2017-03-24T07:24:43.917Z,40.47
2017-03-24T07:25:24.541Z,40.47
2017-03-24T07:26:05.225Z,40.47
2017-03-24T07:26:45.866Z,40.47
2017-03-24T07:27:26.487Z,40.66
2017-03-24T07:28:07.163Z,40.47
2017-03-24T07:28:47.788Z,40.56
2017-03-24T07:29:28.427Z,40.56
2017-03-24T07:30:09.089Z,40.47
2017-03-24T07:30:49.784Z,40.84
2017-03-24T07:31:30.408Z,40.56
2017-03-24T07:32:11.102Z,40.75
2017-03-24T07:32:51.859Z,40.75
2017-03-24T07:33:32.552Z,40.84
2017-03-24T07:34:13.195Z,40.84
2017-03-24T07:34:53.921Z,40.75
2017-03-24T07:35:34.560Z,40.56
2017-03-24T07:36:15.187Z,40.66
2017-03-24T07:36:55.872Z,40.75
2017-03-24T07:37:36.507Z,40.84
2017-03-24T07:38:17.133Z,40.47
2017-03-24T07:38:57.831Z,40.47
2017-03-24T07:39:38.549Z,40.56
2017-03-24T07:40:19.207Z,40.56
2017-03-24T07:40:59.848Z,40.75
2017-03-24T07:41:40.481Z,40.47
2017-03-24T07:42:21.134Z,40.66
2017-03-24T07:43:01.783Z,40.47
2017-03-24T07:43:42.471Z,40.56
2017-03-24T07:44:23.176Z,40.84
2017-03-24T07:45:03.814Z,40.75
2017-03-24T07:45:44.475Z,40.56
2017-03-24T07:46:25.105Z,40.84
2017-03-24T07:47:05.731Z,40.84
2017-03-24T07:47:46.391Z,40.84
2017-03-24T07:48:27.041Z,40.84
2017-03-24T07:49:07.665Z,40.84
2017-03-24T07:49:48.390Z,40.73
2017-03-24T07:50:29.024Z,40.84
2017-03-24T07:51:09.665Z,40.75
2017-03-24T07:51:50.342Z,40.66
2017-03-24T07:52:31.061Z,40.56
2017-03-24T07:53:11.687Z,40.64
2017-03-24T07:53:52.323Z,40.75
2017-03-24T07:54:32.958Z,40.75
2017-03-24T07:55:13.698Z,40.75
2017-03-24T07:55:54.358Z,40.75
2017-03-24T07:56:35.076Z,40.75
2017-03-24T07:57:15.737Z,40.75
2017-03-24T07:57:56.362Z,40.75
2017-03-24T07:58:37.089Z,40.66
2017-03-24T07:59:17.766Z,40.75
2017-03-24T07:59:58.450Z,40.75
2017-03-24T08:00:39.094Z,40.75
2017-03-24T08:01:19.805Z,40.75
2017-03-24T08:02:00.425Z,40.75
2017-03-24T08:02:41.046Z,41.13
2017-03-24T08:03:21.740Z,41.13
2017-03-24T08:04:02.419Z,40.56
2017-03-24T08:04:43.039Z,40.66
2017-03-24T08:05:23.754Z,40.66
2017-03-24T08:06:04.375Z,40.94
2017-03-24T08:06:44.994Z,41.04
2017-03-24T08:07:25.689Z,41.04
2017-03-24T08:08:06.421Z,41.04
2017-03-24T08:08:47.138Z,40.66
2017-03-24T08:09:27.778Z,40.75
2017-03-24T08:10:08.476Z,40.94
2017-03-24T08:10:49.157Z,41.04
2017-03-24T08:11:29.788Z,40.56
2017-03-24T08:12:10.496Z,41.04
2017-03-24T08:12:51.190Z,40.94
2017-03-24T08:13:31.811Z,40.94
2017-03-24T08:14:12.437Z,40.75
2017-03-24T08:14:53.169Z,40.84
2017-03-24T08:15:33.830Z,40.94
2017-03-24T08:16:14.468Z,40.94
2017-03-24T08:16:55.201Z,40.84
2017-03-24T08:17:35.874Z,41.04
2017-03-24T08:18:16.501Z,41.04
2017-03-24T08:18:57.223Z,40.84
2017-03-24T08:19:37.857Z,40.84
2017-03-24T08:20:18.499Z,40.84
2017-03-24T08:20:59.176Z,40.94
2017-03-24T08:21:39.883Z,40.84
2017-03-24T08:22:20.553Z,40.84
2017-03-24T08:23:01.186Z,40.84
2017-03-24T08:23:41.879Z,40.84
2017-03-24T08:24:22.538Z,40.94
2017-03-24T08:25:03.159Z,40.94
2017-03-24T08:25:43.854Z,40.94
2017-03-24T08:26:24.530Z,41.04
2017-03-24T08:27:05.156Z,40.94
2017-03-24T08:27:45.875Z,40.94
2017-03-24T08:28:26.520Z,40.84
2017-03-24T08:29:07.142Z,41.04
2017-03-24T08:29:47.831Z,40.94
2017-03-24T08:30:28.596Z,40.94
2017-03-24T08:31:09.209Z,40.84
2017-03-24T08:31:49.849Z,41.04
2017-03-24T08:32:30.581Z,40.94
2017-03-24T08:33:11.258Z,41.04
2017-03-24T08:33:51.887Z,40.84
2017-03-24T08:34:32.604Z,41.13
2017-03-24T08:35:13.236Z,40.84
2017-03-24T08:35:53.859Z,40.84
2017-03-24T08:36:34.549Z,41.13
2017-03-24T08:37:15.290Z,41.04
2017-03-24T08:37:55.938Z,40.94
2017-03-24T08:38:36.578Z,41.04
2017-03-24T08:39:17.305Z,40.94
2017-03-24T08:39:57.991Z,40.94
2017-03-24T08:40:38.614Z,40.84
2017-03-24T08:41:19.331Z,41.13
2017-03-24T08:42:00.021Z,41.04
2017-03-24T08:42:40.647Z,41.13
2017-03-24T08:43:21.294Z,41.23
2017-03-24T08:44:02.003Z,41.04
2017-03-24T08:44:42.688Z,41.23
2017-03-24T08:45:23.332Z,41.23